sensor_id;sensor_type;location;lat;lon;timestamp;P1;durP1;ratioP1;P2;durP2;ratioP2
71570;SDS011;59407;42.682;23.322;2022-09-09T00:00:12;17.70;;;11.70;;
71570;SDS011;59407;42.682;23.322;2022-09-09T00:02:39;16.48;;;12.25;;
71570;SDS011;59407;42.682;23.322;2022-09-09T00:08:12;18.80;;;11.75;;
71570;SDS011;59407;42.682;23.322;2022-09-09T00:10:50;19.23;;;12.10;;
71570;SDS011;59407;42.682;23.322;2022-09-09T00:13:34;17.37;;;12.27;;
71570;SDS011;59407;42.682;23.322;2022-09-09T00:16:11;17.30;;;12.02;;
71570;SDS011;59407;42.682;23.322;2022-09-09T00:19:07;15.65;;;12.13;;
71570;SDS011;59407;42.682;23.322;2022-09-09T00:21:43;18.13;;;11.73;;
71570;SDS011;59407;42.682;23.322;2022-09-09T00:25:15;16.92;;;11.25;;
71570;SDS011;59407;42.682;23.322;2022-09-09T00:27:32;16.77;;;11.70;;
71570;SDS011;59407;42.682;23.322;2022-09-09T00:30:24;16.92;;;11.98;;
71570;SDS011;59407;42.682;23.322;2022-09-09T00:32:55;18.95;;;12.10;;
71570;SDS011;59407;42.682;23.322;2022-09-09T00:35:25;17.17;;;12.00;;
71570;SDS011;59407;42.682;23.322;2022-09-09T00:37:55;16.25;;;12.50;;
71570;SDS011;59407;42.682;23.322;2022-09-09T00:40:31;18.73;;;12.80;;
71570;SDS011;59407;42.682;23.322;2022-09-09T00:43:19;17.13;;;12.38;;
71570;SDS011;59407;42.682;23.322;2022-09-09T00:46:16;16.90;;;12.27;;
71570;SDS011;59407;42.682;23.322;2022-09-09T00:49:12;15.45;;;11.68;;
71570;SDS011;59407;42.682;23.322;2022-09-09T00:54:48;15.47;;;12.67;;
71570;SDS011;59407;42.682;23.322;2022-09-09T00:57:31;17.50;;;12.25;;
71570;SDS011;59407;42.682;23.322;2022-09-09T01:11:20;18.75;;;12.55;;
71570;SDS011;59407;42.682;23.322;2022-09-09T01:13:47;17.25;;;12.15;;
71570;SDS011;59407;42.682;23.322;2022-09-09T01:16:24;18.60;;;12.93;;
71570;SDS011;59407;42.682;23.322;2022-09-09T01:18:51;18.73;;;11.98;;
71570;SDS011;59407;42.682;23.322;2022-09-09T01:21:32;18.07;;;13.13;;
71570;SDS011;59407;42.682;23.322;2022-09-09T01:26:39;17.75;;;12.40;;
71570;SDS011;59407;42.682;23.322;2022-09-09T01:29:11;20.55;;;11.77;;
71570;SDS011;59407;42.682;23.322;2022-09-09T01:31:51;16.90;;;12.90;;
71570;SDS011;59407;42.682;23.322;2022-09-09T01:34:17;18.50;;;12.17;;
71570;SDS011;59407;42.682;23.322;2022-09-09T01:39:13;18.52;;;12.50;;
71570;SDS011;59407;42.682;23.322;2022-09-09T01:41:38;18.70;;;12.17;;
71570;SDS011;59407;42.682;23.322;2022-09-09T01:44:04;17.27;;;12.23;;
71570;SDS011;59407;42.682;23.322;2022-09-09T01:46:30;18.27;;;12.77;;
71570;SDS011;59407;42.682;23.322;2022-09-09T01:48:55;20.23;;;13.35;;
71570;SDS011;59407;42.682;23.322;2022-09-09T01:51:22;17.37;;;12.83;;
71570;SDS011;59407;42.682;23.322;2022-09-09T01:53:47;17.27;;;13.05;;
71570;SDS011;59407;42.682;23.322;2022-09-09T01:56:32;17.07;;;12.97;;
71570;SDS011;59407;42.682;23.322;2022-09-09T02:02:10;18.30;;;12.68;;
71570;SDS011;59407;42.682;23.322;2022-09-09T02:04:41;18.50;;;13.40;;
71570;SDS011;59407;42.682;23.322;2022-09-09T02:10:05;18.25;;;12.93;;
71570;SDS011;59407;42.682;23.322;2022-09-09T02:12:36;19.02;;;12.70;;
71570;SDS011;59407;42.682;23.322;2022-09-09T02:15:07;17.90;;;12.27;;
71570;SDS011;59407;42.682;23.322;2022-09-09T02:17:36;18.43;;;12.80;;
71570;SDS011;59407;42.682;23.322;2022-09-09T02:20:08;19.48;;;12.60;;
71570;SDS011;59407;42.682;23.322;2022-09-09T02:22:35;19.98;;;13.48;;
71570;SDS011;59407;42.682;23.322;2022-09-09T02:25:05;19.25;;;13.20;;
71570;SDS011;59407;42.682;23.322;2022-09-09T02:27:32;22.55;;;13.77;;
71570;SDS011;59407;42.682;23.322;2022-09-09T02:29:57;19.90;;;12.93;;
71570;SDS011;59407;42.682;23.322;2022-09-09T02:32:27;18.67;;;12.93;;
71570;SDS011;59407;42.682;23.322;2022-09-09T02:35:17;18.90;;;12.57;;
71570;SDS011;59407;42.682;23.322;2022-09-09T02:37:43;20.27;;;13.25;;
71570;SDS011;59407;42.682;23.322;2022-09-09T02:40:11;18.30;;;13.48;;
71570;SDS011;59407;42.682;23.322;2022-09-09T02:42:45;21.10;;;13.93;;
71570;SDS011;59407;42.682;23.322;2022-09-09T02:45:13;18.35;;;13.25;;
71570;SDS011;59407;42.682;23.322;2022-09-09T02:50:26;18.75;;;13.88;;
71570;SDS011;59407;42.682;23.322;2022-09-09T02:55:38;18.73;;;13.10;;
71570;SDS011;59407;42.682;23.322;2022-09-09T02:58:05;19.42;;;13.15;;
71570;SDS011;59407;42.682;23.322;2022-09-09T03:00:33;18.43;;;13.20;;
71570;SDS011;59407;42.682;23.322;2022-09-09T03:03:01;18.20;;;13.50;;
71570;SDS011;59407;42.682;23.322;2022-09-09T03:05:28;21.23;;;14.07;;
71570;SDS011;59407;42.682;23.322;2022-09-09T03:07:53;18.87;;;13.93;;
71570;SDS011;59407;42.682;23.322;2022-09-09T03:10:18;18.20;;;13.43;;
71570;SDS011;59407;42.682;23.322;2022-09-09T03:12:44;18.40;;;14.40;;
71570;SDS011;59407;42.682;23.322;2022-09-09T03:15:09;21.27;;;13.20;;
71570;SDS011;59407;42.682;23.322;2022-09-09T03:17:35;21.27;;;13.70;;
71570;SDS011;59407;42.682;23.322;2022-09-09T03:20:02;19.43;;;13.47;;
71570;SDS011;59407;42.682;23.322;2022-09-09T03:22:28;16.55;;;13.27;;
71570;SDS011;59407;42.682;23.322;2022-09-09T03:24:54;19.33;;;13.17;;
71570;SDS011;59407;42.682;23.322;2022-09-09T03:27:19;20.10;;;13.40;;
71570;SDS011;59407;42.682;23.322;2022-09-09T03:29:45;18.43;;;13.23;;
71570;SDS011;59407;42.682;23.322;2022-09-09T03:32:11;19.70;;;13.32;;
71570;SDS011;59407;42.682;23.322;2022-09-09T03:34:37;18.02;;;13.68;;
71570;SDS011;59407;42.682;23.322;2022-09-09T03:37:05;18.08;;;13.88;;
71570;SDS011;59407;42.682;23.322;2022-09-09T03:39:31;19.70;;;14.00;;
71570;SDS011;59407;42.682;23.322;2022-09-09T03:41:56;18.38;;;13.88;;
71570;SDS011;59407;42.682;23.322;2022-09-09T03:44:21;18.97;;;14.37;;
71570;SDS011;59407;42.682;23.322;2022-09-09T03:46:47;20.30;;;14.80;;
71570;SDS011;59407;42.682;23.322;2022-09-09T03:49:12;19.60;;;14.67;;
71570;SDS011;59407;42.682;23.322;2022-09-09T03:51:38;23.48;;;15.00;;
71570;SDS011;59407;42.682;23.322;2022-09-09T03:54:04;19.50;;;14.53;;
71570;SDS011;59407;42.682;23.322;2022-09-09T03:56:33;18.92;;;13.57;;
71570;SDS011;59407;42.682;23.322;2022-09-09T03:58:58;21.40;;;15.53;;
71570;SDS011;59407;42.682;23.322;2022-09-09T04:01:24;19.47;;;14.60;;
71570;SDS011;59407;42.682;23.322;2022-09-09T04:03:49;23.17;;;14.80;;
71570;SDS011;59407;42.682;23.322;2022-09-09T04:06:15;21.50;;;14.57;;
71570;SDS011;59407;42.682;23.322;2022-09-09T04:08:42;19.95;;;14.88;;
71570;SDS011;59407;42.682;23.322;2022-09-09T04:11:07;22.93;;;14.50;;
71570;SDS011;59407;42.682;23.322;2022-09-09T04:13:33;20.80;;;14.27;;
71570;SDS011;59407;42.682;23.322;2022-09-09T04:16:00;22.38;;;14.75;;
71570;SDS011;59407;42.682;23.322;2022-09-09T04:18:27;20.63;;;14.63;;
71570;SDS011;59407;42.682;23.322;2022-09-09T04:20:55;20.23;;;14.43;;
71570;SDS011;59407;42.682;23.322;2022-09-09T04:23:24;22.63;;;14.60;;
71570;SDS011;59407;42.682;23.322;2022-09-09T04:25:51;18.67;;;14.85;;
71570;SDS011;59407;42.682;23.322;2022-09-09T04:28:18;20.35;;;14.65;;
71570;SDS011;59407;42.682;23.322;2022-09-09T04:30:45;18.35;;;13.90;;
71570;SDS011;59407;42.682;23.322;2022-09-09T04:33:11;17.30;;;14.40;;
71570;SDS011;59407;42.682;23.322;2022-09-09T04:35:37;18.95;;;14.15;;
71570;SDS011;59407;42.682;23.322;2022-09-09T04:38:03;20.38;;;14.48;;
71570;SDS011;59407;42.682;23.322;2022-09-09T04:40:29;18.70;;;14.98;;
71570;SDS011;59407;42.682;23.322;2022-09-09T04:42:57;19.43;;;14.30;;
71570;SDS011;59407;42.682;23.322;2022-09-09T04:45:23;19.80;;;14.43;;
71570;SDS011;59407;42.682;23.322;2022-09-09T04:47:48;18.10;;;14.57;;
71570;SDS011;59407;42.682;23.322;2022-09-09T04:50:14;22.23;;;14.50;;
71570;SDS011;59407;42.682;23.322;2022-09-09T04:52:39;22.33;;;14.93;;
71570;SDS011;59407;42.682;23.322;2022-09-09T04:55:06;22.02;;;15.43;;
71570;SDS011;59407;42.682;23.322;2022-09-09T04:57:32;21.83;;;14.02;;
71570;SDS011;59407;42.682;23.322;2022-09-09T04:59:58;18.95;;;13.75;;
71570;SDS011;59407;42.682;23.322;2022-09-09T05:02:25;20.67;;;13.90;;
71570;SDS011;59407;42.682;23.322;2022-09-09T05:04:51;17.65;;;13.77;;
71570;SDS011;59407;42.682;23.322;2022-09-09T05:07:16;17.33;;;13.40;;
71570;SDS011;59407;42.682;23.322;2022-09-09T05:09:42;20.38;;;13.73;;
71570;SDS011;59407;42.682;23.322;2022-09-09T05:12:08;18.27;;;13.43;;
71570;SDS011;59407;42.682;23.322;2022-09-09T05:14:33;20.92;;;13.55;;
71570;SDS011;59407;42.682;23.322;2022-09-09T05:17:00;17.50;;;13.48;;
71570;SDS011;59407;42.682;23.322;2022-09-09T05:19:26;15.87;;;12.70;;
71570;SDS011;59407;42.682;23.322;2022-09-09T05:21:51;18.67;;;13.40;;
71570;SDS011;59407;42.682;23.322;2022-09-09T05:24:16;18.13;;;13.10;;
71570;SDS011;59407;42.682;23.322;2022-09-09T05:26:42;19.13;;;13.87;;
71570;SDS011;59407;42.682;23.322;2022-09-09T05:29:09;14.90;;;12.75;;
71570;SDS011;59407;42.682;23.322;2022-09-09T05:31:34;19.70;;;14.57;;
71570;SDS011;59407;42.682;23.322;2022-09-09T05:33:59;17.17;;;13.48;;
71570;SDS011;59407;42.682;23.322;2022-09-09T05:36:25;17.03;;;13.77;;
71570;SDS011;59407;42.682;23.322;2022-09-09T05:38:51;18.33;;;13.17;;
71570;SDS011;59407;42.682;23.322;2022-09-09T05:41:18;20.63;;;13.80;;
71570;SDS011;59407;42.682;23.322;2022-09-09T05:43:45;16.70;;;12.55;;
71570;SDS011;59407;42.682;23.322;2022-09-09T05:46:12;18.45;;;13.55;;
71570;SDS011;59407;42.682;23.322;2022-09-09T05:48:44;19.10;;;13.55;;
71570;SDS011;59407;42.682;23.322;2022-09-09T05:51:19;20.70;;;13.47;;
71570;SDS011;59407;42.682;23.322;2022-09-09T05:53:55;17.77;;;12.35;;
71570;SDS011;59407;42.682;23.322;2022-09-09T06:03:14;13.90;;;11.10;;
71570;SDS011;59407;42.682;23.322;2022-09-09T06:05:41;13.20;;;9.90;;
71570;SDS011;59407;42.682;23.322;2022-09-09T06:08:07;14.35;;;10.50;;
71570;SDS011;59407;42.682;23.322;2022-09-09T06:10:32;13.63;;;10.57;;
71570;SDS011;59407;42.682;23.322;2022-09-09T06:12:59;17.73;;;11.18;;
71570;SDS011;59407;42.682;23.322;2022-09-09T06:15:24;14.73;;;10.83;;
71570;SDS011;59407;42.682;23.322;2022-09-09T06:17:54;15.03;;;11.63;;
71570;SDS011;59407;42.682;23.322;2022-09-09T06:20:20;23.08;;;13.35;;
71570;SDS011;59407;42.682;23.322;2022-09-09T06:22:46;13.77;;;10.80;;
71570;SDS011;59407;42.682;23.322;2022-09-09T06:25:13;14.23;;;11.02;;
71570;SDS011;59407;42.682;23.322;2022-09-09T06:27:39;14.87;;;11.03;;
71570;SDS011;59407;42.682;23.322;2022-09-09T06:30:05;13.75;;;10.93;;
71570;SDS011;59407;42.682;23.322;2022-09-09T06:32:32;13.95;;;10.65;;
71570;SDS011;59407;42.682;23.322;2022-09-09T06:34:59;13.48;;;10.57;;
71570;SDS011;59407;42.682;23.322;2022-09-09T06:37:26;14.40;;;11.13;;
71570;SDS011;59407;42.682;23.322;2022-09-09T06:39:52;17.08;;;10.30;;
71570;SDS011;59407;42.682;23.322;2022-09-09T06:42:19;14.60;;;10.02;;
71570;SDS011;59407;42.682;23.322;2022-09-09T06:44:45;13.17;;;9.67;;
71570;SDS011;59407;42.682;23.322;2022-09-09T06:47:10;11.83;;;9.10;;
71570;SDS011;59407;42.682;23.322;2022-09-09T06:49:36;15.53;;;10.23;;
71570;SDS011;59407;42.682;23.322;2022-09-09T06:52:01;11.87;;;7.67;;
71570;SDS011;59407;42.682;23.322;2022-09-09T06:54:26;13.50;;;7.63;;
71570;SDS011;59407;42.682;23.322;2022-09-09T06:56:52;11.27;;;7.57;;
71570;SDS011;59407;42.682;23.322;2022-09-09T06:59:18;13.75;;;6.93;;
71570;SDS011;59407;42.682;23.322;2022-09-09T07:01:43;12.43;;;7.50;;
71570;SDS011;59407;42.682;23.322;2022-09-09T07:04:09;10.70;;;7.37;;
71570;SDS011;59407;42.682;23.322;2022-09-09T07:06:40;10.15;;;7.60;;
71570;SDS011;59407;42.682;23.322;2022-09-09T07:09:08;15.13;;;8.88;;
71570;SDS011;59407;42.682;23.322;2022-09-09T07:11:39;10.55;;;7.97;;
71570;SDS011;59407;42.682;23.322;2022-09-09T07:14:08;10.63;;;8.17;;
71570;SDS011;59407;42.682;23.322;2022-09-09T07:16:39;11.43;;;7.60;;
71570;SDS011;59407;42.682;23.322;2022-09-09T07:19:07;9.02;;;7.50;;
71570;SDS011;59407;42.682;23.322;2022-09-09T07:21:33;10.03;;;7.50;;
71570;SDS011;59407;42.682;23.322;2022-09-09T07:23:59;14.27;;;8.10;;
71570;SDS011;59407;42.682;23.322;2022-09-09T07:26:28;11.77;;;7.18;;
71570;SDS011;59407;42.682;23.322;2022-09-09T07:28:54;9.93;;;7.40;;
71570;SDS011;59407;42.682;23.322;2022-09-09T07:31:24;11.35;;;8.55;;
71570;SDS011;59407;42.682;23.322;2022-09-09T07:33:55;12.68;;;7.57;;
71570;SDS011;59407;42.682;23.322;2022-09-09T07:36:22;8.80;;;7.20;;
71570;SDS011;59407;42.682;23.322;2022-09-09T07:38:49;10.27;;;6.93;;
71570;SDS011;59407;42.682;23.322;2022-09-09T07:41:26;9.27;;;6.85;;
71570;SDS011;59407;42.682;23.322;2022-09-09T07:43:57;10.15;;;6.53;;
71570;SDS011;59407;42.682;23.322;2022-09-09T07:46:24;8.10;;;6.45;;
71570;SDS011;59407;42.682;23.322;2022-09-09T07:48:55;8.07;;;6.65;;
71570;SDS011;59407;42.682;23.322;2022-09-09T07:51:30;9.50;;;6.07;;
71570;SDS011;59407;42.682;23.322;2022-09-09T07:57:20;9.38;;;7.80;;
71570;SDS011;59407;42.682;23.322;2022-09-09T08:00:12;8.07;;;6.00;;
71570;SDS011;59407;42.682;23.322;2022-09-09T08:06:34;9.87;;;6.03;;
71570;SDS011;59407;42.682;23.322;2022-09-09T08:30:46;10.45;;;6.18;;
71570;SDS011;59407;42.682;23.322;2022-09-09T08:33:15;9.80;;;5.78;;
71570;SDS011;59407;42.682;23.322;2022-09-09T08:56:22;9.20;;;5.68;;
71570;SDS011;59407;42.682;23.322;2022-09-09T08:59:13;8.55;;;6.05;;
71570;SDS011;59407;42.682;23.322;2022-09-09T09:10:40;7.93;;;5.20;;
71570;SDS011;59407;42.682;23.322;2022-09-09T09:13:24;7.10;;;5.38;;
71570;SDS011;59407;42.682;23.322;2022-09-09T09:16:00;7.80;;;5.50;;
71570;SDS011;59407;42.682;23.322;2022-09-09T09:24:56;14.57;;;6.32;;
71570;SDS011;59407;42.682;23.322;2022-09-09T09:30:00;9.18;;;6.05;;
71570;SDS011;59407;42.682;23.322;2022-09-09T09:32:28;8.57;;;6.05;;
71570;SDS011;59407;42.682;23.322;2022-09-09T09:34:56;8.90;;;5.93;;
71570;SDS011;59407;42.682;23.322;2022-09-09T09:37:26;7.55;;;5.75;;
71570;SDS011;59407;42.682;23.322;2022-09-09T09:39:54;9.00;;;5.88;;
71570;SDS011;59407;42.682;23.322;2022-09-09T09:42:20;11.77;;;6.97;;
71570;SDS011;59407;42.682;23.322;2022-09-09T09:44:45;10.77;;;5.80;;
71570;SDS011;59407;42.682;23.322;2022-09-09T09:49:53;8.52;;;6.00;;
71570;SDS011;59407;42.682;23.322;2022-09-09T09:52:26;8.40;;;6.00;;
71570;SDS011;59407;42.682;23.322;2022-09-09T09:54:53;7.93;;;5.67;;
71570;SDS011;59407;42.682;23.322;2022-09-09T09:57:22;10.40;;;6.32;;
71570;SDS011;59407;42.682;23.322;2022-09-09T10:02:47;10.35;;;6.90;;
71570;SDS011;59407;42.682;23.322;2022-09-09T10:05:15;12.23;;;5.63;;
71570;SDS011;59407;42.682;23.322;2022-09-09T10:07:45;10.73;;;5.73;;
71570;SDS011;59407;42.682;23.322;2022-09-09T10:10:13;7.85;;;5.85;;
71570;SDS011;59407;42.682;23.322;2022-09-09T10:15:27;8.87;;;6.30;;
71570;SDS011;59407;42.682;23.322;2022-09-09T10:23:22;9.82;;;6.15;;
71570;SDS011;59407;42.682;23.322;2022-09-09T10:34:51;10.60;;;6.57;;
71570;SDS011;59407;42.682;23.322;2022-09-09T10:40:02;8.73;;;6.10;;
71570;SDS011;59407;42.682;23.322;2022-09-09T10:42:44;10.17;;;6.43;;
71570;SDS011;59407;42.682;23.322;2022-09-09T10:45:23;10.02;;;7.40;;
71570;SDS011;59407;42.682;23.322;2022-09-09T10:56:19;12.50;;;6.93;;
71570;SDS011;59407;42.682;23.322;2022-09-09T10:58:52;11.15;;;8.00;;
71570;SDS011;59407;42.682;23.322;2022-09-09T11:01:25;12.68;;;7.53;;
71570;SDS011;59407;42.682;23.322;2022-09-09T11:04:25;12.87;;;7.83;;
71570;SDS011;59407;42.682;23.322;2022-09-09T11:07:05;14.35;;;7.50;;
71570;SDS011;59407;42.682;23.322;2022-09-09T11:09:38;12.82;;;7.95;;
71570;SDS011;59407;42.682;23.322;2022-09-09T11:12:09;11.05;;;8.45;;
71570;SDS011;59407;42.682;23.322;2022-09-09T11:14:52;17.27;;;11.43;;
71570;SDS011;59407;42.682;23.322;2022-09-09T11:17:42;11.63;;;8.93;;
71570;SDS011;59407;42.682;23.322;2022-09-09T11:20:12;11.20;;;7.32;;
71570;SDS011;59407;42.682;23.322;2022-09-09T11:33:55;12.27;;;7.60;;
71570;SDS011;59407;42.682;23.322;2022-09-09T11:44:44;10.57;;;7.40;;
71570;SDS011;59407;42.682;23.322;2022-09-09T11:49:44;10.07;;;7.30;;
71570;SDS011;59407;42.682;23.322;2022-09-09T11:52:11;13.07;;;8.27;;
71570;SDS011;59407;42.682;23.322;2022-09-09T11:54:57;11.30;;;7.30;;
71570;SDS011;59407;42.682;23.322;2022-09-09T11:57:27;15.43;;;7.93;;
71570;SDS011;59407;42.682;23.322;2022-09-09T11:59:58;11.25;;;7.93;;
71570;SDS011;59407;42.682;23.322;2022-09-09T12:02:28;11.80;;;7.95;;
71570;SDS011;59407;42.682;23.322;2022-09-09T12:05:05;11.77;;;7.57;;
71570;SDS011;59407;42.682;23.322;2022-09-09T12:07:35;14.57;;;8.47;;
71570;SDS011;59407;42.682;23.322;2022-09-09T12:10:20;15.18;;;7.82;;
71570;SDS011;59407;42.682;23.322;2022-09-09T12:12:50;11.20;;;7.57;;
71570;SDS011;59407;42.682;23.322;2022-09-09T12:17:47;11.55;;;7.38;;
71570;SDS011;59407;42.682;23.322;2022-09-09T12:20:18;10.90;;;7.50;;
71570;SDS011;59407;42.682;23.322;2022-09-09T12:30:54;14.20;;;8.53;;
71570;SDS011;59407;42.682;23.322;2022-09-09T12:33:24;15.45;;;8.23;;
71570;SDS011;59407;42.682;23.322;2022-09-09T12:35:51;10.17;;;7.90;;
71570;SDS011;59407;42.682;23.322;2022-09-09T12:38:26;12.48;;;7.95;;
71570;SDS011;59407;42.682;23.322;2022-09-09T12:41:04;12.30;;;7.78;;
71570;SDS011;59407;42.682;23.322;2022-09-09T12:43:31;16.88;;;10.80;;
71570;SDS011;59407;42.682;23.322;2022-09-09T12:46:03;15.40;;;8.35;;
71570;SDS011;59407;42.682;23.322;2022-09-09T12:48:38;12.93;;;7.67;;
71570;SDS011;59407;42.682;23.322;2022-09-09T12:51:14;11.80;;;8.02;;
71570;SDS011;59407;42.682;23.322;2022-09-09T12:53:46;9.90;;;7.95;;
71570;SDS011;59407;42.682;23.322;2022-09-09T12:56:19;14.25;;;8.38;;
71570;SDS011;59407;42.682;23.322;2022-09-09T12:58:46;19.67;;;9.87;;
71570;SDS011;59407;42.682;23.322;2022-09-09T13:01:23;13.13;;;8.63;;
71570;SDS011;59407;42.682;23.322;2022-09-09T13:03:51;14.77;;;7.53;;
71570;SDS011;59407;42.682;23.322;2022-09-09T13:06:20;10.97;;;8.00;;
71570;SDS011;59407;42.682;23.322;2022-09-09T13:08:52;13.18;;;8.07;;
71570;SDS011;59407;42.682;23.322;2022-09-09T13:12:01;14.10;;;8.75;;
71570;SDS011;59407;42.682;23.322;2022-09-09T13:14:42;16.73;;;8.50;;
71570;SDS011;59407;42.682;23.322;2022-09-09T13:17:05;12.57;;;8.88;;
71570;SDS011;59407;42.682;23.322;2022-09-09T13:19:34;8.80;;;5.10;;
71570;SDS011;59407;42.682;23.322;2022-09-09T13:27:42;10.48;;;5.38;;
71570;SDS011;59407;42.682;23.322;2022-09-09T13:30:39;11.38;;;5.30;;
71570;SDS011;59407;42.682;23.322;2022-09-09T13:35:34;10.40;;;5.03;;
71570;SDS011;59407;42.682;23.322;2022-09-09T13:38:08;9.07;;;5.30;;
71570;SDS011;59407;42.682;23.322;2022-09-09T13:40:34;14.85;;;6.60;;
71570;SDS011;59407;42.682;23.322;2022-09-09T13:43:00;12.63;;;7.00;;
71570;SDS011;59407;42.682;23.322;2022-09-09T13:45:27;10.33;;;6.60;;
71570;SDS011;59407;42.682;23.322;2022-09-09T13:47:53;10.20;;;5.68;;
71570;SDS011;59407;42.682;23.322;2022-09-09T13:50:27;11.65;;;5.38;;
71570;SDS011;59407;42.682;23.322;2022-09-09T13:52:55;10.75;;;6.07;;
71570;SDS011;59407;42.682;23.322;2022-09-09T13:55:23;11.20;;;6.30;;
71570;SDS011;59407;42.682;23.322;2022-09-09T13:57:53;12.23;;;7.53;;
71570;SDS011;59407;42.682;23.322;2022-09-09T14:00:24;11.60;;;7.30;;
71570;SDS011;59407;42.682;23.322;2022-09-09T14:02:49;12.18;;;7.45;;
71570;SDS011;59407;42.682;23.322;2022-09-09T14:05:15;11.77;;;7.00;;
71570;SDS011;59407;42.682;23.322;2022-09-09T14:07:43;9.43;;;6.90;;
71570;SDS011;59407;42.682;23.322;2022-09-09T14:10:09;11.73;;;7.75;;
71570;SDS011;59407;42.682;23.322;2022-09-09T14:12:35;11.02;;;7.43;;
71570;SDS011;59407;42.682;23.322;2022-09-09T14:15:02;13.53;;;8.33;;
71570;SDS011;59407;42.682;23.322;2022-09-09T14:17:28;11.20;;;7.32;;
71570;SDS011;59407;42.682;23.322;2022-09-09T14:19:55;12.17;;;8.30;;
71570;SDS011;59407;42.682;23.322;2022-09-09T14:22:21;11.90;;;7.90;;
71570;SDS011;59407;42.682;23.322;2022-09-09T14:24:47;9.75;;;8.07;;
71570;SDS011;59407;42.682;23.322;2022-09-09T14:27:12;10.47;;;7.37;;
71570;SDS011;59407;42.682;23.322;2022-09-09T14:29:38;15.70;;;7.70;;
71570;SDS011;59407;42.682;23.322;2022-09-09T14:32:03;15.70;;;8.10;;
71570;SDS011;59407;42.682;23.322;2022-09-09T14:34:29;13.10;;;7.13;;
71570;SDS011;59407;42.682;23.322;2022-09-09T14:36:54;14.77;;;7.90;;
71570;SDS011;59407;42.682;23.322;2022-09-09T14:39:19;20.90;;;14.33;;
71570;SDS011;59407;42.682;23.322;2022-09-09T14:41:45;20.97;;;12.33;;
71570;SDS011;59407;42.682;23.322;2022-09-09T14:44:10;14.73;;;9.77;;
71570;SDS011;59407;42.682;23.322;2022-09-09T14:46:36;16.15;;;9.65;;
71570;SDS011;59407;42.682;23.322;2022-09-09T14:49:02;16.40;;;9.60;;
71570;SDS011;59407;42.682;23.322;2022-09-09T14:51:27;15.80;;;8.17;;
71570;SDS011;59407;42.682;23.322;2022-09-09T14:53:54;11.52;;;8.23;;
71570;SDS011;59407;42.682;23.322;2022-09-09T14:56:22;14.60;;;8.00;;
71570;SDS011;59407;42.682;23.322;2022-09-09T14:58:50;14.85;;;9.88;;
71570;SDS011;59407;42.682;23.322;2022-09-09T15:01:16;10.47;;;7.43;;
71570;SDS011;59407;42.682;23.322;2022-09-09T15:03:50;11.85;;;7.20;;
71570;SDS011;59407;42.682;23.322;2022-09-09T15:06:16;12.68;;;7.07;;
71570;SDS011;59407;42.682;23.322;2022-09-09T15:08:42;11.97;;;6.60;;
71570;SDS011;59407;42.682;23.322;2022-09-09T15:11:09;19.15;;;7.30;;
71570;SDS011;59407;42.682;23.322;2022-09-09T15:13:35;14.00;;;6.85;;
71570;SDS011;59407;42.682;23.322;2022-09-09T15:16:05;11.30;;;6.97;;
71570;SDS011;59407;42.682;23.322;2022-09-09T15:18:31;12.60;;;7.93;;
71570;SDS011;59407;42.682;23.322;2022-09-09T15:20:58;13.43;;;8.03;;
71570;SDS011;59407;42.682;23.322;2022-09-09T15:23:25;13.35;;;8.27;;
71570;SDS011;59407;42.682;23.322;2022-09-09T15:25:54;14.68;;;8.18;;
71570;SDS011;59407;42.682;23.322;2022-09-09T15:28:20;11.83;;;7.57;;
71570;SDS011;59407;42.682;23.322;2022-09-09T15:30:50;15.68;;;9.77;;
71570;SDS011;59407;42.682;23.322;2022-09-09T15:33:17;14.82;;;9.10;;
71570;SDS011;59407;42.682;23.322;2022-09-09T15:35:43;13.10;;;8.27;;
71570;SDS011;59407;42.682;23.322;2022-09-09T15:38:08;12.73;;;7.50;;
71570;SDS011;59407;42.682;23.322;2022-09-09T15:40:34;19.23;;;7.97;;
71570;SDS011;59407;42.682;23.322;2022-09-09T15:42:59;17.10;;;8.73;;
71570;SDS011;59407;42.682;23.322;2022-09-09T15:45:25;10.70;;;7.90;;
71570;SDS011;59407;42.682;23.322;2022-09-09T15:47:51;13.23;;;8.50;;
71570;SDS011;59407;42.682;23.322;2022-09-09T15:50:17;14.45;;;9.07;;
71570;SDS011;59407;42.682;23.322;2022-09-09T15:52:42;10.90;;;8.53;;
71570;SDS011;59407;42.682;23.322;2022-09-09T15:55:08;26.00;;;14.73;;
71570;SDS011;59407;42.682;23.322;2022-09-09T15:57:33;18.17;;;11.10;;
71570;SDS011;59407;42.682;23.322;2022-09-09T15:59:59;17.03;;;9.67;;
71570;SDS011;59407;42.682;23.322;2022-09-09T16:02:25;15.73;;;9.63;;
71570;SDS011;59407;42.682;23.322;2022-09-09T16:04:51;14.93;;;9.27;;
71570;SDS011;59407;42.682;23.322;2022-09-09T16:07:16;15.65;;;9.98;;
71570;SDS011;59407;42.682;23.322;2022-09-09T16:09:42;15.10;;;10.13;;
71570;SDS011;59407;42.682;23.322;2022-09-09T16:12:08;18.40;;;9.80;;
71570;SDS011;59407;42.682;23.322;2022-09-09T16:14:38;14.15;;;9.82;;
71570;SDS011;59407;42.682;23.322;2022-09-09T16:17:03;15.20;;;9.67;;
71570;SDS011;59407;42.682;23.322;2022-09-09T16:19:30;15.80;;;10.23;;
71570;SDS011;59407;42.682;23.322;2022-09-09T16:21:56;26.80;;;12.13;;
71570;SDS011;59407;42.682;23.322;2022-09-09T16:24:22;23.45;;;11.50;;
71570;SDS011;59407;42.682;23.322;2022-09-09T16:26:50;16.48;;;9.38;;
71570;SDS011;59407;42.682;23.322;2022-09-09T16:29:16;17.17;;;10.10;;
71570;SDS011;59407;42.682;23.322;2022-09-09T16:31:43;19.95;;;11.95;;
71570;SDS011;59407;42.682;23.322;2022-09-09T16:34:09;21.58;;;11.68;;
71570;SDS011;59407;42.682;23.322;2022-09-09T16:36:36;16.53;;;10.67;;
71570;SDS011;59407;42.682;23.322;2022-09-09T16:39:04;23.50;;;11.00;;
71570;SDS011;59407;42.682;23.322;2022-09-09T16:41:31;19.73;;;11.43;;
71570;SDS011;59407;42.682;23.322;2022-09-09T16:43:58;17.13;;;10.07;;
71570;SDS011;59407;42.682;23.322;2022-09-09T16:46:27;18.55;;;11.27;;
71570;SDS011;59407;42.682;23.322;2022-09-09T16:48:53;18.90;;;11.30;;
71570;SDS011;59407;42.682;23.322;2022-09-09T16:51:31;21.90;;;13.15;;
71570;SDS011;59407;42.682;23.322;2022-09-09T16:54:02;24.10;;;15.15;;
71570;SDS011;59407;42.682;23.322;2022-09-09T16:56:29;23.80;;;14.38;;
71570;SDS011;59407;42.682;23.322;2022-09-09T16:58:57;26.77;;;16.35;;
71570;SDS011;59407;42.682;23.322;2022-09-09T17:01:31;28.30;;;16.90;;
71570;SDS011;59407;42.682;23.322;2022-09-09T17:04:00;26.50;;;14.85;;
71570;SDS011;59407;42.682;23.322;2022-09-09T17:06:27;23.80;;;12.88;;
71570;SDS011;59407;42.682;23.322;2022-09-09T17:08:57;16.63;;;11.95;;
71570;SDS011;59407;42.682;23.322;2022-09-09T17:11:24;30.42;;;15.05;;
71570;SDS011;59407;42.682;23.322;2022-09-09T17:13:50;27.07;;;14.87;;
71570;SDS011;59407;42.682;23.322;2022-09-09T17:16:16;38.90;;;30.95;;
71570;SDS011;59407;42.682;23.322;2022-09-09T17:18:43;48.03;;;31.42;;
71570;SDS011;59407;42.682;23.322;2022-09-09T17:21:15;31.58;;;25.13;;
71570;SDS011;59407;42.682;23.322;2022-09-09T17:23:42;39.47;;;27.40;;
71570;SDS011;59407;42.682;23.322;2022-09-09T17:26:08;27.17;;;13.85;;
71570;SDS011;59407;42.682;23.322;2022-09-09T17:28:36;31.25;;;21.05;;
71570;SDS011;59407;42.682;23.322;2022-09-09T17:31:04;34.15;;;22.67;;